createdAt,value
2017-06-18T00:00:56.403Z,83.00
2017-06-18T00:03:23.951Z,83.30
2017-06-18T00:05:52.247Z,83.40
2017-06-18T00:08:19.786Z,83.30
2017-06-18T00:10:48.071Z,82.80
2017-06-18T00:13:16.391Z,82.30
2017-06-18T00:15:44.679Z,82.50
2017-06-18T00:18:12.989Z,82.40
2017-06-18T00:20:40.510Z,82.30
2017-06-18T00:23:08.803Z,82.70
2017-06-18T00:25:36.346Z,82.60
2017-06-18T00:28:04.638Z,83.30
2017-06-18T00:30:32.950Z,83.10
2017-06-18T00:33:00.475Z,83.10
2017-06-18T00:35:28.783Z,83.00
2017-06-18T00:37:56.304Z,83.00
2017-06-18T00:40:23.859Z,82.90
2017-06-18T00:42:52.147Z,82.60
2017-06-18T00:45:19.691Z,82.60
2017-06-18T00:47:47.234Z,82.60
2017-06-18T00:50:14.762Z,83.60
2017-06-18T00:52:42.299Z,83.00
2017-06-18T00:55:09.824Z,83.80
2017-06-18T00:57:37.384Z,84.10
2017-06-18T01:00:04.906Z,84.60
2017-06-18T01:02:32.431Z,85.00
2017-06-18T01:04:59.975Z,84.90
2017-06-18T01:07:27.498Z,84.40
2017-06-18T01:09:55.042Z,84.20
2017-06-18T01:12:23.331Z,83.80
2017-06-18T01:14:50.884Z,83.80
2017-06-18T01:17:18.406Z,83.70
2017-06-18T01:19:45.956Z,83.70
2017-06-18T01:22:14.243Z,84.70
2017-06-18T01:24:41.774Z,84.50
2017-06-18T01:27:09.316Z,84.80
2017-06-18T01:29:36.852Z,84.60
2017-06-18T01:32:04.393Z,84.60
2017-06-18T01:34:31.918Z,85.00
2017-06-18T01:37:00.223Z,85.10
2017-06-18T01:39:27.746Z,85.00
2017-06-18T01:41:55.315Z,85.00
2017-06-18T01:44:23.603Z,85.10
2017-06-18T01:46:51.124Z,85.00
2017-06-18T01:49:18.674Z,84.90
2017-06-18T01:51:46.208Z,84.90
2017-06-18T01:54:13.752Z,84.80
2017-06-18T01:56:41.276Z,84.70
2017-06-18T01:59:08.835Z,84.40
2017-06-18T02:01:37.127Z,84.70
2017-06-18T02:04:04.651Z,84.60
2017-06-18T02:06:32.196Z,84.70
2017-06-18T02:08:59.720Z,84.60
2017-06-18T02:11:28.030Z,84.10
2017-06-18T02:13:55.559Z,84.00
2017-06-18T02:16:23.107Z,83.90
2017-06-18T02:18:51.395Z,83.70
2017-06-18T02:21:18.941Z,83.70
2017-06-18T02:23:47.230Z,83.90
2017-06-18T02:26:14.789Z,83.80
2017-06-18T02:28:42.316Z,84.00
2017-06-18T02:31:10.600Z,84.20
2017-06-18T02:33:38.143Z,84.10
2017-06-18T02:36:05.672Z,84.20
2017-06-18T02:38:33.218Z,84.20
2017-06-18T02:41:00.743Z,84.20
2017-06-18T02:43:28.282Z,84.10
2017-06-18T02:45:55.808Z,84.00
2017-06-18T02:48:23.364Z,82.00
2017-06-18T02:50:50.888Z,82.00
2017-06-18T02:53:18.410Z,82.40
2017-06-18T02:55:46.720Z,82.90
2017-06-18T02:58:15.012Z,82.30
2017-06-18T03:00:42.555Z,82.20
2017-06-18T03:03:10.842Z,85.00
2017-06-18T03:05:38.398Z,85.00
2017-06-18T03:08:05.921Z,85.40
2017-06-18T03:10:33.443Z,85.10
2017-06-18T03:13:00.992Z,84.70
2017-06-18T03:15:28.520Z,85.10
2017-06-18T03:17:56.064Z,84.80
2017-06-18T03:20:24.354Z,84.90
2017-06-18T03:23:08.740Z,84.90
2017-06-18T03:25:36.262Z,84.30
2017-06-18T03:28:03.802Z,84.10
2017-06-18T03:30:31.330Z,84.20
2017-06-18T03:32:59.634Z,84.10
2017-06-18T03:35:27.158Z,84.10
2017-06-18T03:37:54.871Z,84.90
2017-06-18T03:40:22.390Z,85.30
2017-06-18T03:42:49.912Z,85.20
2017-06-18T03:45:17.450Z,84.90
2017-06-18T03:47:44.977Z,85.00
2017-06-18T03:50:12.555Z,84.60
2017-06-18T03:52:40.075Z,84.20
2017-06-18T03:55:07.614Z,83.50
2017-06-18T03:57:35.134Z,83.30
2017-06-18T04:00:02.678Z,83.80
2017-06-18T04:02:30.195Z,84.30
2017-06-18T04:04:57.756Z,85.30
2017-06-18T04:07:26.045Z,84.30
2017-06-18T04:09:53.565Z,84.20
2017-06-18T04:12:21.113Z,83.70
2017-06-18T04:14:48.638Z,83.40
2017-06-18T04:17:16.178Z,82.50
2017-06-18T04:19:43.700Z,82.20
2017-06-18T04:22:11.243Z,82.30
2017-06-18T04:24:38.763Z,82.10
2017-06-18T04:27:06.316Z,82.10
2017-06-18T04:29:33.834Z,81.90
2017-06-18T04:32:02.118Z,82.80
2017-06-18T04:34:29.655Z,81.80
2017-06-18T04:36:57.940Z,82.00
2017-06-18T04:39:26.238Z,81.50
2017-06-18T04:41:53.757Z,81.40
2017-06-18T04:44:21.295Z,79.80
2017-06-18T04:46:48.819Z,77.90
2017-06-18T04:49:16.363Z,75.40
2017-06-18T04:51:43.879Z,73.90
2017-06-18T04:54:11.418Z,73.30
2017-06-18T04:56:38.942Z,73.40
2017-06-18T04:59:06.464Z,73.20
2017-06-18T05:01:34.775Z,69.80
2017-06-18T05:04:02.296Z,69.60
2017-06-18T05:06:29.843Z,69.00
2017-06-18T05:08:57.358Z,70.10
2017-06-18T05:11:25.658Z,71.80
2017-06-18T05:13:53.179Z,71.80
2017-06-18T05:16:20.722Z,70.60
2017-06-18T05:18:48.242Z,68.60
2017-06-18T05:21:15.798Z,67.00
2017-06-18T05:23:43.314Z,66.50
2017-06-18T05:26:10.834Z,63.90
2017-06-18T05:28:38.370Z,63.50
2017-06-18T05:31:05.895Z,60.90
2017-06-18T05:33:34.198Z,56.20
2017-06-18T05:36:01.722Z,56.20
2017-06-18T05:38:29.258Z,53.80
2017-06-18T05:40:56.775Z,52.10
2017-06-18T05:43:24.330Z,50.00
2017-06-18T05:45:51.854Z,49.40
2017-06-18T05:48:20.142Z,46.30
2017-06-18T05:50:47.690Z,46.30
2017-06-18T05:53:15.220Z,45.10
2017-06-18T05:55:42.762Z,44.30
2017-06-18T05:58:11.053Z,44.00
2017-06-18T06:00:39.358Z,45.10
2017-06-18T06:03:06.876Z,45.00
2017-06-18T06:05:34.431Z,43.60
2017-06-18T06:08:01.950Z,42.70
2017-06-18T06:10:29.475Z,42.60
2017-06-18T06:12:57.015Z,41.60
2017-06-18T06:15:24.538Z,42.20
2017-06-18T06:17:52.083Z,42.50
2017-06-18T06:20:19.608Z,43.60
2017-06-18T06:22:47.150Z,42.00
2017-06-18T06:25:14.674Z,42.70
2017-06-18T06:27:43.028Z,41.80
2017-06-18T06:30:10.551Z,41.80
2017-06-18T06:32:38.106Z,41.30
2017-06-18T06:35:05.618Z,40.20
2017-06-18T06:37:33.143Z,39.90
2017-06-18T06:40:00.685Z,40.10
2017-06-18T06:42:28.202Z,40.10
2017-06-18T06:44:56.519Z,41.70
2017-06-18T06:47:24.038Z,41.70
2017-06-18T06:49:51.579Z,40.60
2017-06-18T06:52:19.867Z,38.60
2017-06-18T06:54:47.409Z,38.60
2017-06-18T06:57:14.949Z,39.20
2017-06-18T06:59:42.502Z,39.10
2017-06-18T07:02:10.027Z,43.10
2017-06-18T07:04:37.554Z,47.20
2017-06-18T07:07:05.101Z,50.40
2017-06-18T07:09:32.622Z,48.90
2017-06-18T07:12:00.162Z,45.50
2017-06-18T07:14:27.679Z,42.80
2017-06-18T07:17:31.510Z,43.60
2017-06-18T07:19:59.034Z,46.40
2017-06-18T07:22:26.566Z,45.30
2017-06-18T07:24:54.103Z,44.10
2017-06-18T07:27:21.625Z,45.40
2017-06-18T07:29:49.934Z,45.50
2017-06-18T07:32:17.460Z,45.30
2017-06-18T07:34:45.770Z,40.40
2017-06-18T07:37:13.290Z,40.30
2017-06-18T07:39:40.846Z,41.10
2017-06-18T07:42:10.522Z,40.40
2017-06-18T07:44:38.899Z,39.00
2017-06-18T07:47:07.399Z,36.00
2017-06-18T07:49:34.921Z,35.70
2017-06-18T07:52:02.463Z,37.50
2017-06-18T07:54:29.986Z,38.20
2017-06-18T07:56:58.071Z,37.60
2017-06-18T07:59:26.362Z,38.00
2017-06-18T08:01:54.679Z,36.60
2017-06-18T08:04:22.207Z,36.60
2017-06-18T08:06:49.728Z,36.10
2017-06-18T08:09:17.271Z,35.80
2017-06-18T08:11:44.786Z,37.00
2017-06-18T08:14:12.330Z,37.10
2017-06-18T08:16:39.856Z,37.10
2017-06-18T08:19:07.397Z,37.80
2017-06-18T08:21:34.923Z,38.80
2017-06-18T08:24:02.503Z,37.00
2017-06-18T08:26:30.023Z,38.10
2017-06-18T08:28:57.567Z,37.20
2017-06-18T08:31:25.846Z,37.80
2017-06-18T08:33:54.166Z,37.70
2017-06-18T08:36:21.683Z,37.60
2017-06-18T08:38:49.197Z,39.50
2017-06-18T08:41:17.506Z,40.70
2017-06-18T08:43:45.027Z,40.70
2017-06-18T08:46:12.566Z,42.00
2017-06-18T08:48:40.854Z,42.10
2017-06-18T08:51:08.406Z,42.20
2017-06-18T08:53:35.926Z,41.60
2017-06-18T08:56:04.211Z,40.30
2017-06-18T08:58:31.751Z,40.30
2017-06-18T09:00:59.270Z,39.90
2017-06-18T09:03:26.806Z,41.10
2017-06-18T09:05:54.332Z,38.40
2017-06-18T09:08:21.879Z,37.90
2017-06-18T09:10:49.403Z,39.20
2017-06-18T09:13:16.943Z,40.20
2017-06-18T09:15:44.464Z,42.00
2017-06-18T09:18:12.019Z,42.10
2017-06-18T09:20:39.542Z,41.60
2017-06-18T09:23:07.058Z,41.50
2017-06-18T09:25:34.603Z,42.80
2017-06-18T09:28:02.122Z,42.40
2017-06-18T09:30:29.663Z,41.50
2017-06-18T09:32:57.957Z,43.60
2017-06-18T09:35:25.503Z,43.60
2017-06-18T09:37:53.024Z,45.60
2017-06-18T09:40:20.591Z,42.40
2017-06-18T09:42:48.109Z,42.00
2017-06-18T09:45:16.399Z,41.80
2017-06-18T09:47:43.940Z,41.80
2017-06-18T09:50:11.463Z,40.70
2017-06-18T09:52:39.006Z,38.80
2017-06-18T09:55:07.296Z,39.80
2017-06-18T09:57:34.839Z,39.80
2017-06-18T10:00:03.132Z,37.30
2017-06-18T10:02:31.459Z,38.90
2017-06-18T10:04:58.986Z,38.80
2017-06-18T10:07:26.505Z,40.60
2017-06-18T10:09:54.046Z,39.70
2017-06-18T10:12:21.567Z,38.60
2017-06-18T10:14:49.142Z,37.90
2017-06-18T10:17:16.663Z,38.70
2017-06-18T10:19:44.204Z,40.70
2017-06-18T10:22:13.630Z,41.90
2017-06-18T10:24:41.167Z,40.30
2017-06-18T10:27:08.691Z,41.70
2017-06-18T10:29:36.994Z,40.10
2017-06-18T10:32:04.518Z,40.10
2017-06-18T10:34:32.074Z,40.60
2017-06-18T10:37:00.359Z,38.30
2017-06-18T10:39:27.883Z,38.30
2017-06-18T10:41:56.199Z,35.70
2017-06-18T10:44:24.490Z,36.10
2017-06-18T10:46:52.030Z,36.10
2017-06-18T10:49:20.319Z,39.40
2017-06-18T10:51:47.875Z,39.30
2017-06-18T10:54:16.158Z,38.30
2017-06-18T10:56:43.682Z,38.30
2017-06-18T10:59:11.228Z,36.00
2017-06-18T11:01:38.750Z,33.40
2017-06-18T11:04:06.291Z,31.40
2017-06-18T11:06:34.575Z,29.40
2017-06-18T11:09:02.883Z,30.60
2017-06-18T11:11:30.408Z,30.50
2017-06-18T11:13:57.930Z,30.00
2017-06-18T11:16:25.486Z,28.30
2017-06-18T11:18:53.012Z,28.80
2017-06-18T11:21:20.554Z,29.70
2017-06-18T11:23:48.071Z,29.70
2017-06-18T11:26:15.614Z,28.70
2017-06-18T11:28:43.138Z,30.00
2017-06-18T11:31:11.431Z,29.90
2017-06-18T11:36:13.476Z,30.50
2017-06-18T11:38:41.786Z,28.40
2017-06-18T11:41:09.309Z,27.90
2017-06-18T11:43:37.614Z,28.50
2017-06-18T11:46:05.138Z,28.50
2017-06-18T11:48:33.467Z,29.90
2017-06-18T11:51:01.000Z,29.90
2017-06-18T11:53:29.282Z,30.60
2017-06-18T11:55:57.592Z,32.30
2017-06-18T11:58:25.883Z,32.50
2017-06-18T12:00:53.431Z,31.80
2017-06-18T12:03:21.722Z,31.50
2017-06-18T12:05:49.259Z,31.50
2017-06-18T12:08:16.783Z,34.10
2017-06-18T12:10:45.091Z,29.50
2017-06-18T12:13:13.383Z,29.90
2017-06-18T12:15:40.936Z,29.80
2017-06-18T12:18:08.464Z,30.40
2017-06-18T12:20:35.987Z,30.00
2017-06-18T12:23:03.535Z,29.80
2017-06-18T12:25:31.062Z,30.00
2017-06-18T12:27:58.613Z,31.10
2017-06-18T12:30:26.905Z,32.20
2017-06-18T12:32:55.251Z,30.20
2017-06-18T12:35:22.775Z,30.20
2017-06-18T12:37:50.298Z,32.50
2017-06-18T12:40:18.607Z,30.10
2017-06-18T12:42:46.122Z,30.10
2017-06-18T12:45:13.667Z,32.90
2017-06-18T12:47:41.955Z,29.70
2017-06-18T12:50:09.507Z,29.70
2017-06-18T12:52:37.027Z,30.20
2017-06-18T12:55:04.548Z,29.40
2017-06-18T12:57:32.286Z,29.80
2017-06-18T13:00:00.570Z,27.90
2017-06-18T13:02:28.107Z,27.90
2017-06-18T13:04:56.395Z,30.80
2017-06-18T13:07:24.715Z,31.50
2017-06-18T13:09:52.999Z,30.10
2017-06-18T13:12:20.522Z,30.10
2017-06-18T13:14:48.067Z,32.00
2017-06-18T13:17:15.595Z,29.50
2017-06-18T13:19:43.138Z,29.70
2017-06-18T13:22:10.664Z,30.70
2017-06-18T13:24:38.206Z,32.50
2017-06-18T13:27:05.722Z,32.10
2017-06-18T13:29:33.274Z,32.70
2017-06-18T13:32:00.798Z,31.90
2017-06-18T13:34:28.326Z,31.60
2017-06-18T13:36:55.866Z,30.10
2017-06-18T13:39:23.383Z,30.90
2017-06-18T13:41:50.931Z,29.60
2017-06-18T13:44:18.458Z,29.20
2017-06-18T13:46:46.002Z,29.60
2017-06-18T13:49:13.527Z,30.00
2017-06-18T13:51:41.086Z,29.00
2017-06-18T13:54:08.611Z,29.70
2017-06-18T13:56:36.901Z,31.10
2017-06-18T13:59:05.207Z,30.00
2017-06-18T14:01:33.495Z,30.20
2017-06-18T14:04:01.809Z,33.50
2017-06-18T14:06:29.334Z,33.50
2017-06-18T14:08:57.644Z,31.30
2017-06-18T14:11:25.169Z,31.30
2017-06-18T14:13:52.767Z,33.90
2017-06-18T14:16:20.290Z,32.80
2017-06-18T14:18:47.815Z,31.70
2017-06-18T14:21:16.122Z,30.30
2017-06-18T14:23:43.643Z,30.30
2017-06-18T14:26:11.947Z,30.70
2017-06-18T14:28:39.471Z,30.70
2017-06-18T14:31:07.795Z,31.80
2017-06-18T14:33:35.321Z,31.60
2017-06-18T14:36:02.843Z,31.80
2017-06-18T14:38:30.394Z,31.80
2017-06-18T14:40:57.918Z,31.00
2017-06-18T14:43:25.462Z,29.70
2017-06-18T14:45:52.986Z,30.50
2017-06-18T14:48:20.532Z,30.70
2017-06-18T14:50:48.056Z,31.50
2017-06-18T14:53:15.611Z,30.20
2017-06-18T14:55:43.141Z,31.20
2017-06-18T14:58:10.662Z,31.00
2017-06-18T15:00:38.203Z,31.10
2017-06-18T15:03:05.727Z,30.20
2017-06-18T15:05:34.040Z,31.90
2017-06-18T15:08:01.567Z,32.10
2017-06-18T15:10:29.106Z,32.40
2017-06-18T15:12:56.627Z,30.20
2017-06-18T15:15:24.189Z,32.00
2017-06-18T15:17:51.719Z,30.70
2017-06-18T15:20:20.007Z,32.30
2017-06-18T15:22:47.550Z,32.30
2017-06-18T15:25:15.071Z,32.20
2017-06-18T15:27:42.606Z,31.60
2017-06-18T15:30:10.897Z,33.20
2017-06-18T15:32:38.438Z,33.10
2017-06-18T15:35:05.959Z,32.80
2017-06-18T15:37:33.516Z,33.80
2017-06-18T15:40:01.041Z,34.00
2017-06-18T15:42:28.561Z,34.60
2017-06-18T15:44:56.105Z,34.50
2017-06-18T15:47:23.631Z,33.10
2017-06-18T15:49:51.170Z,34.80
2017-06-18T15:52:18.686Z,35.40
2017-06-18T15:54:46.227Z,34.20
2017-06-18T15:57:13.768Z,35.40
2017-06-18T15:59:41.321Z,35.80
2017-06-18T16:02:08.842Z,36.70
2017-06-18T16:04:36.362Z,36.40
2017-06-18T16:07:03.901Z,35.50
2017-06-18T16:09:31.423Z,36.50
2017-06-18T16:11:58.962Z,37.90
2017-06-18T16:14:26.491Z,37.30
2017-06-18T16:16:54.034Z,36.30
2017-06-18T16:19:21.562Z,37.20
2017-06-18T16:21:49.123Z,37.60
2017-06-18T16:24:16.647Z,38.60
2017-06-18T16:26:44.170Z,37.20
2017-06-18T16:29:11.714Z,38.20
2017-06-18T16:31:39.233Z,37.80
2017-06-18T16:34:06.774Z,38.10
2017-06-18T16:36:34.290Z,37.80
2017-06-18T16:39:01.834Z,37.00
2017-06-18T16:41:29.359Z,38.10
2017-06-18T16:43:56.919Z,37.80
2017-06-18T16:46:24.446Z,37.50
2017-06-18T16:48:51.972Z,37.10
2017-06-18T16:51:19.512Z,36.30
2017-06-18T16:53:47.031Z,36.50
2017-06-18T16:56:14.577Z,39.10
2017-06-18T16:58:42.099Z,40.30
2017-06-18T17:01:09.635Z,40.40
2017-06-18T17:03:37.149Z,36.20
2017-06-18T17:06:04.692Z,38.60
2017-06-18T17:08:32.215Z,39.80
2017-06-18T17:10:59.772Z,40.60
2017-06-18T17:13:27.294Z,39.30
2017-06-18T17:15:54.818Z,41.20
2017-06-18T17:18:22.358Z,39.60
2017-06-18T17:20:50.648Z,39.60
2017-06-18T17:23:18.192Z,39.60
2017-06-18T17:25:45.720Z,40.30
2017-06-18T17:28:14.030Z,38.10
2017-06-18T17:30:41.554Z,38.10
2017-06-18T17:33:09.074Z,39.60
2017-06-18T17:35:36.614Z,41.10
2017-06-18T17:38:04.139Z,41.60
2017-06-18T17:40:31.682Z,42.50
2017-06-18T17:42:59.202Z,42.60
2017-06-18T17:45:27.515Z,43.70
2017-06-18T17:47:55.036Z,43.60
2017-06-18T17:50:22.579Z,42.60
2017-06-18T17:52:50.118Z,42.60
2017-06-18T17:55:17.648Z,44.50
2017-06-18T17:57:45.195Z,44.90
2017-06-18T18:00:12.718Z,45.50
2017-06-18T18:02:40.257Z,46.90
2017-06-18T18:05:07.782Z,47.10
2017-06-18T18:07:36.108Z,47.30
2017-06-18T18:10:03.627Z,47.00
2017-06-18T18:12:31.145Z,47.40
2017-06-18T18:14:59.450Z,46.80
2017-06-18T18:17:27.737Z,47.40
2017-06-18T18:19:55.280Z,47.30
2017-06-18T18:22:22.799Z,47.60
2017-06-18T18:24:51.123Z,49.00
2017-06-18T18:27:18.652Z,49.00
2017-06-18T18:29:46.179Z,48.80
2017-06-18T18:32:13.719Z,49.40
2017-06-18T18:34:41.235Z,49.90
2017-06-18T18:37:09.567Z,52.60
2017-06-18T18:39:37.086Z,52.60
2017-06-18T18:42:07.746Z,53.60
2017-06-18T18:44:38.111Z,54.40
2017-06-18T18:47:05.686Z,55.00
2017-06-18T18:49:33.292Z,54.60
2017-06-18T18:52:01.679Z,55.80
2017-06-18T18:54:30.038Z,55.50
2017-06-18T18:56:57.559Z,55.50
2017-06-18T18:59:25.103Z,55.20
2017-06-18T19:01:52.655Z,55.20
2017-06-18T19:04:20.194Z,55.20
2017-06-18T19:06:47.715Z,55.40
2017-06-18T19:09:15.256Z,55.70
2017-06-18T19:11:42.779Z,55.80
2017-06-18T19:14:10.392Z,56.20
2017-06-18T19:16:37.919Z,55.80
2017-06-18T19:19:05.447Z,56.60
2017-06-18T19:21:32.991Z,57.10
2017-06-18T19:24:00.515Z,57.70
2017-06-18T19:26:28.060Z,57.90
2017-06-18T19:28:55.590Z,58.10
2017-06-18T19:31:23.138Z,58.30
2017-06-18T19:33:50.667Z,58.60
2017-06-18T19:36:18.211Z,58.90
2017-06-18T19:38:45.733Z,59.60
2017-06-18T19:41:14.054Z,59.30
2017-06-18T19:43:41.579Z,59.10
2017-06-18T19:46:09.097Z,59.40
2017-06-18T19:48:37.405Z,59.70
2017-06-18T19:51:04.930Z,59.70
2017-06-18T19:53:32.475Z,59.70
2017-06-18T19:56:00.001Z,60.20
2017-06-18T19:58:27.542Z,61.00
2017-06-18T20:00:55.063Z,61.90
2017-06-18T20:03:22.607Z,62.40
2017-06-18T20:05:50.164Z,64.70
2017-06-18T20:08:17.734Z,66.50
2017-06-18T20:10:45.276Z,67.90
2017-06-18T20:13:12.798Z,67.10
2017-06-18T20:15:40.342Z,66.60
2017-06-18T20:18:08.632Z,66.40
2017-06-18T20:20:36.178Z,65.60
2017-06-18T20:23:03.698Z,65.20
2017-06-18T20:25:31.240Z,64.60
2017-06-18T20:27:58.767Z,63.90
2017-06-18T20:30:26.314Z,63.30
2017-06-18T20:32:53.845Z,63.20
2017-06-18T20:35:21.391Z,62.70
2017-06-18T20:37:48.934Z,63.50
2017-06-18T20:40:17.228Z,64.50
2017-06-18T20:42:44.770Z,64.60
2017-06-18T20:45:13.064Z,64.50
2017-06-18T20:47:41.368Z,64.50
2017-06-18T20:50:09.659Z,64.90
2017-06-18T20:52:37.203Z,64.90
2017-06-18T20:55:04.726Z,64.70
2017-06-18T20:57:32.250Z,64.40
2017-06-18T20:59:59.794Z,63.20
2017-06-18T21:02:27.319Z,63.80
2017-06-18T21:04:55.623Z,65.80
2017-06-18T21:07:23.146Z,65.80
2017-06-18T21:09:50.694Z,66.60
2017-06-18T21:12:18.218Z,67.30
2017-06-18T21:14:45.776Z,67.30
2017-06-18T21:17:13.296Z,67.50
2017-06-18T21:19:41.586Z,67.50
2017-06-18T21:22:09.126Z,67.40
2017-06-18T21:24:37.410Z,65.50
2017-06-18T21:27:04.951Z,66.20
2017-06-18T21:29:32.474Z,66.10
2017-06-18T21:32:00.014Z,66.40
2017-06-18T21:34:27.542Z,67.00
2017-06-18T21:36:55.084Z,67.10
2017-06-18T21:39:22.607Z,67.00
2017-06-18T21:41:50.936Z,67.80
2017-06-18T21:44:19.223Z,67.80
2017-06-18T21:46:46.783Z,67.60
2017-06-18T21:49:14.330Z,67.50
2017-06-18T21:51:41.854Z,67.50
2017-06-18T21:54:09.391Z,64.80
2017-06-18T21:56:36.919Z,64.80
2017-06-18T21:59:05.228Z,68.10
2017-06-18T22:01:33.510Z,69.90
2017-06-18T22:04:01.824Z,70.60
2017-06-18T22:06:29.351Z,70.60
2017-06-18T22:08:56.907Z,70.70
2017-06-18T22:11:24.430Z,69.70
2017-06-18T22:13:51.949Z,69.80
2017-06-18T22:16:19.482Z,70.20
2017-06-18T22:18:47.003Z,70.40
2017-06-18T22:21:15.311Z,70.90
2017-06-18T22:23:42.854Z,70.70
2017-06-18T22:26:10.399Z,70.60
2017-06-18T22:28:38.686Z,68.80
2017-06-18T22:31:07.007Z,66.90
2017-06-18T22:33:34.531Z,66.90
2017-06-18T22:36:02.051Z,67.20
2017-06-18T22:38:29.590Z,70.50
2017-06-18T22:40:57.111Z,71.20
2017-06-18T22:43:24.654Z,70.10
2017-06-18T22:45:52.178Z,68.60
2017-06-18T22:48:19.715Z,69.20
2017-06-18T22:50:48.003Z,69.60
2017-06-18T22:53:15.551Z,69.50
2017-06-18T22:55:43.077Z,70.80
2017-06-18T22:58:10.594Z,72.40
2017-06-18T23:00:38.138Z,72.70
2017-06-18T23:03:05.659Z,70.90
2017-06-18T23:05:33.970Z,72.10
2017-06-18T23:08:01.496Z,72.00
2017-06-18T23:10:29.800Z,73.40
2017-06-18T23:12:57.326Z,73.20
2017-06-18T23:15:25.632Z,69.80
2017-06-18T23:17:53.151Z,69.60
2017-06-18T23:20:20.703Z,69.50
2017-06-18T23:22:48.228Z,69.10
2017-06-18T23:25:16.515Z,70.00
2017-06-18T23:27:44.055Z,69.90
2017-06-18T23:30:11.575Z,69.90
2017-06-18T23:32:39.115Z,70.30
2017-06-18T23:35:07.404Z,72.00
2017-06-18T23:37:35.707Z,72.40
2017-06-18T23:40:03.227Z,72.20
2017-06-18T23:42:30.780Z,72.40
2017-06-18T23:44:58.298Z,72.30
2017-06-18T23:47:25.822Z,72.60
2017-06-18T23:49:53.357Z,72.80
2017-06-18T23:52:20.875Z,73.00
2017-06-18T23:54:48.418Z,73.50
2017-06-18T23:57:15.934Z,73.10
2017-06-18T23:59:44.242Z,72.90
